Time;durP1;ratioP1;P1;durP2;ratioP2;P2;SDS_P1;SDS_P2;PMS_P1;PMS_P2;Temp;Humidity;BMP_temperature;BMP_pressure;BME280_temperature;BME280_humidity;BME280_pressure;Samples;Min_cycle;Max_cycle;Signal;HPM_P1;HPM_P2
2022/01/12 00:01:54;;;;;;;23.58;13.52;;;2.80;99.90;;;;;;5010854;28;20058;-54
2022/01/12 00:04:20;;;;;;;27.80;14.40;;;2.80;99.90;;;;;;5010962;28;20342;-52
2022/01/12 00:06:45;;;;;;;19.25;13.38;;;2.80;99.90;;;;;;5010487;28;20500;-56
2022/01/12 00:09:11;;;;;;;21.38;13.35;;;2.80;99.90;;;;;;5011086;28;20088;-51
2022/01/12 00:11:37;;;;;;;21.55;14.15;;;2.80;99.90;;;;;;4992935;28;20053;-54
2022/01/12 00:14:04;;;;;;;18.50;12.32;;;2.80;99.90;;;;;;5010856;28;20029;-54
2022/01/12 00:16:30;;;;;;;21.77;14.13;;;2.80;99.90;;;;;;5010380;28;20041;-51
2022/01/12 00:18:56;;;;;;;19.60;13.68;;;2.90;99.90;;;;;;4991752;28;20415;-50
2022/01/12 00:21:21;;;;;;;23.13;14.15;;;2.90;99.90;;;;;;5009864;28;20018;-52
2022/01/12 00:23:47;;;;;;;21.00;14.13;;;3.00;99.90;;;;;;5011206;28;20021;-52
2022/01/12 00:26:36;;;;;;;19.65;13.45;;;3.00;99.90;;;;;;5010470;28;20037;-51
2022/01/12 00:34:31;;;;;;;22.38;14.85;;;3.00;99.90;;;;;;5009959;28;20036;-54
2022/01/12 00:36:57;;;;;;;21.75;14.23;;;2.90;99.90;;;;;;4992237;28;20133;-52
2022/01/12 00:39:23;;;;;;;22.15;15.00;;;2.90;99.90;;;;;;4991761;28;20034;-52
2022/01/12 00:41:49;;;;;;;22.42;15.25;;;2.90;99.90;;;;;;5010486;28;20072;-52
2022/01/12 00:44:32;;;;;;;24.02;16.05;;;2.90;99.90;;;;;;5010562;28;20068;-53
2022/01/12 00:46:58;;;;;;;24.83;15.48;;;2.80;99.90;;;;;;5008514;28;20042;-51
2022/01/12 00:49:23;;;;;;;26.15;16.20;;;2.80;99.90;;;;;;5009577;28;20271;-52
2022/01/12 00:51:54;;;;;;;21.30;17.25;;;2.80;99.90;;;;;;5009342;28;20029;-52
2022/01/12 00:54:20;;;;;;;31.38;17.80;;;2.80;99.90;;;;;;5010045;28;20034;-53
2022/01/12 00:56:45;;;;;;;28.35;17.70;;;2.70;99.90;;;;;;5009802;28;20054;-51
2022/01/12 00:59:11;;;;;;;25.17;17.77;;;2.70;99.90;;;;;;5009290;28;20064;-52
2022/01/12 01:01:37;;;;;;;25.83;17.50;;;2.70;99.90;;;;;;5010089;28;20029;-55
2022/01/12 01:04:02;;;;;;;27.23;16.58;;;2.70;99.90;;;;;;4992814;28;20400;-52
2022/01/12 01:06:28;;;;;;;28.90;16.83;;;2.60;99.90;;;;;;5009628;28;20447;-52
2022/01/12 01:08:54;;;;;;;24.77;17.88;;;2.70;99.90;;;;;;5009692;28;20084;-52
2022/01/12 01:11:20;;;;;;;29.33;16.80;;;2.70;99.90;;;;;;5004630;28;20068;-53
2022/01/12 01:13:59;;;;;;;28.55;17.83;;;2.60;99.90;;;;;;5009326;28;20396;-53
2022/01/12 01:27:05;;;;;;;27.88;18.02;;;2.70;99.90;;;;;;5008916;28;20127;-51
2022/01/12 01:29:31;;;;;;;26.20;17.52;;;2.70;99.90;;;;;;5008762;28;20025;-50
2022/01/12 01:31:57;;;;;;;30.45;18.23;;;2.70;99.90;;;;;;5008498;28;20494;-53
2022/01/12 01:34:23;;;;;;;29.17;19.25;;;2.70;99.90;;;;;;5009428;28;20581;-52
2022/01/12 01:36:54;;;;;;;29.42;18.02;;;2.70;99.90;;;;;;5008973;28;20262;-51
2022/01/12 01:39:24;;;;;;;29.85;18.52;;;2.70;99.90;;;;;;5009210;28;20496;-54
2022/01/12 01:41:55;;;;;;;30.25;18.58;;;2.70;99.90;;;;;;5008898;28;20022;-53
2022/01/12 01:53:17;;;;;;;27.83;17.52;;;2.70;99.90;;;;;;5008358;28;20085;-53
2022/01/12 01:55:30;;;;;;;29.67;18.20;;;2.70;99.90;;;;;;5008607;28;20045;-53
2022/01/12 01:57:56;;;;;;;31.38;18.30;;;2.70;99.90;;;;;;5007549;28;20037;-52
2022/01/12 02:00:24;;;;;;;28.13;18.00;;;2.70;99.90;;;;;;5006772;28;20038;-52
2022/01/12 02:02:51;;;;;;;27.75;19.02;;;2.70;99.90;;;;;;5006738;28;20038;-52
2022/01/12 02:05:17;;;;;;;32.33;19.23;;;2.70;99.90;;;;;;5008388;28;20083;-52
2022/01/12 02:07:43;;;;;;;29.58;18.65;;;2.70;99.90;;;;;;5008880;28;20037;-54
2022/01/12 02:10:09;;;;;;;29.63;18.92;;;2.70;99.90;;;;;;5008163;28;20180;-53
2022/01/12 02:12:35;;;;;;;31.98;20.50;;;2.70;99.90;;;;;;5009422;28;20029;-52
2022/01/12 02:15:02;;;;;;;30.25;18.35;;;2.70;99.90;;;;;;5008290;28;20029;-54
2022/01/12 02:17:39;;;;;;;29.88;18.55;;;2.70;99.90;;;;;;5005043;28;20042;-52
2022/01/12 02:36:21;;;;;;;28.48;20.30;;;2.70;99.90;;;;;;5008063;28;20036;-53
2022/01/12 02:41:31;;;;;;;32.47;21.83;;;2.70;99.90;;;;;;5008622;28;20088;-52
2022/01/12 02:54:44;;;;;;;38.17;22.45;;;2.70;99.90;;;;;;5011655;28;20182;-53
2022/01/12 02:57:10;;;;;;;39.08;22.65;;;2.70;99.90;;;;;;5011570;28;20555;-51
2022/01/12 02:59:38;;;;;;;42.10;22.33;;;2.70;99.90;;;;;;5011396;28;20109;-53
2022/01/12 03:07:42;;;;;;;38.95;22.60;;;2.70;99.90;;;;;;4950745;29;20046;-52
2022/01/12 03:10:10;;;;;;;43.08;22.35;;;2.70;99.90;;;;;;4982448;28;20042;-54
2022/01/12 03:12:42;;;;;;;36.55;22.85;;;2.70;99.90;;;;;;5011861;28;20104;-53
2022/01/12 03:15:08;;;;;;;35.30;21.40;;;2.70;99.90;;;;;;5009460;28;20053;-55
2022/01/12 03:17:34;;;;;;;41.42;23.48;;;2.70;99.90;;;;;;5009944;28;20408;-55
2022/01/12 03:20:00;;;;;;;38.05;23.05;;;2.70;99.90;;;;;;5010861;28;20032;-52
2022/01/12 03:22:26;;;;;;;40.72;23.48;;;2.70;99.90;;;;;;5013003;28;20022;-52
2022/01/12 03:24:51;;;;;;;38.13;23.70;;;2.70;99.90;;;;;;5012239;28;20030;-52
2022/01/12 03:27:17;;;;;;;38.65;24.83;;;2.70;99.90;;;;;;5011872;28;20029;-52
2022/01/12 03:29:44;;;;;;;42.92;23.80;;;2.70;99.90;;;;;;5011084;28;20060;-52
2022/01/12 03:32:12;;;;;;;42.17;24.95;;;2.70;99.90;;;;;;5011113;28;20053;-51
2022/01/12 03:34:41;;;;;;;42.67;24.95;;;2.70;99.90;;;;;;5010526;28;20033;-52
2022/01/12 03:37:38;;;;;;;37.70;23.40;;;2.70;99.90;;;;;;5012093;28;20072;-53
2022/01/12 03:40:02;;;;;;;41.72;24.75;;;2.70;99.90;;;;;;5010165;28;20245;-53
2022/01/12 03:42:27;;;;;;;52.60;25.83;;;2.70;99.90;;;;;;5010816;28;20037;-52
2022/01/12 03:44:53;;;;;;;38.40;23.90;;;2.70;99.90;;;;;;5010135;28;20124;-54
2022/01/12 03:47:19;;;;;;;42.80;26.52;;;2.80;99.90;;;;;;5010533;28;20119;-52
2022/01/12 03:49:44;;;;;;;46.97;26.33;;;2.80;99.90;;;;;;5010326;28;20455;-52
2022/01/12 03:52:10;;;;;;;41.30;24.00;;;2.80;99.90;;;;;;5011110;28;20064;-53
2022/01/12 03:54:35;;;;;;;43.45;23.58;;;2.70;99.90;;;;;;5010029;28;20034;-55
2022/01/12 03:57:01;;;;;;;50.22;27.15;;;2.70;99.90;;;;;;5010902;28;20037;-54
2022/01/12 03:59:26;;;;;;;46.53;26.00;;;2.80;99.90;;;;;;5010489;28;20508;-52
2022/01/12 04:01:52;;;;;;;41.88;24.88;;;2.80;99.90;;;;;;5011009;28;20113;-52
2022/01/12 04:04:23;;;;;;;42.60;25.20;;;2.80;99.90;;;;;;5010790;28;20026;-52
2022/01/12 04:09:33;;;;;;;43.22;24.13;;;2.80;99.90;;;;;;5010091;28;20084;-53
2022/01/12 04:11:58;;;;;;;42.97;24.65;;;2.80;99.90;;;;;;5011174;28;20037;-52
2022/01/12 04:14:24;;;;;;;47.65;27.13;;;2.80;99.90;;;;;;5010063;28;20044;-54
2022/01/12 04:16:50;;;;;;;52.58;28.52;;;2.80;99.90;;;;;;5010364;28;20026;-52
2022/01/12 04:19:15;;;;;;;45.42;25.30;;;2.80;99.90;;;;;;5013425;23;20574;-56
2022/01/12 04:21:46;;;;;;;48.95;24.88;;;2.80;99.90;;;;;;4991315;28;20543;-55
2022/01/12 04:24:13;;;;;;;47.50;26.17;;;2.70;99.90;;;;;;4991264;28;20080;-54
2022/01/12 04:26:39;;;;;;;45.70;24.25;;;2.70;99.90;;;;;;4990663;28;20117;-53
2022/01/12 04:29:06;;;;;;;48.08;25.05;;;2.70;99.90;;;;;;4989615;28;20572;-57
2022/01/12 04:31:36;;;;;;;41.13;23.10;;;2.70;99.90;;;;;;4990447;28;20030;-54
2022/01/12 04:34:02;;;;;;;40.88;25.25;;;2.70;99.90;;;;;;4990159;28;20050;-57
2022/01/12 04:36:28;;;;;;;39.85;22.55;;;2.80;99.90;;;;;;4989781;28;20034;-50
2022/01/12 04:38:54;;;;;;;44.53;26.33;;;2.80;99.90;;;;;;4989889;28;20493;-50
2022/01/12 04:41:22;;;;;;;42.28;25.33;;;2.80;99.90;;;;;;4990769;28;20503;-53
2022/01/12 04:43:48;;;;;;;41.10;23.15;;;2.70;99.90;;;;;;4990274;28;20033;-53
2022/01/12 04:48:54;;;;;;;46.95;24.15;;;2.70;99.90;;;;;;4989860;28;20030;-55
2022/01/12 04:51:20;;;;;;;38.60;23.92;;;2.80;99.90;;;;;;4989956;28;20022;-51
2022/01/12 04:53:46;;;;;;;41.92;24.63;;;2.80;99.90;;;;;;4990936;28;20201;-56
2022/01/12 04:56:12;;;;;;;38.50;22.80;;;2.80;99.90;;;;;;4990071;28;20539;-55
2022/01/12 04:58:37;;;;;;;50.28;23.90;;;2.80;99.90;;;;;;4990363;28;20027;-54
2022/01/12 05:01:08;;;;;;;43.05;22.40;;;2.80;99.90;;;;;;4989364;28;20599;-54
2022/01/12 05:06:36;;;;;;;41.83;22.83;;;2.80;99.90;;;;;;4989123;28;20069;-54
2022/01/12 05:14:21;;;;;;;39.97;21.90;;;2.80;99.90;;;;;;4978004;28;20049;-52
2022/01/12 05:16:46;;;;;;;34.00;22.17;;;2.80;99.90;;;;;;4990147;28;20445;-55
2022/01/12 05:19:12;;;;;;;42.22;22.45;;;2.80;99.90;;;;;;4989792;28;20042;-54
2022/01/12 05:21:37;;;;;;;44.80;23.40;;;2.80;99.90;;;;;;4989598;28;20038;-54
2022/01/12 05:24:06;;;;;;;40.22;23.65;;;2.80;99.90;;;;;;4989496;28;20084;-54
2022/01/12 05:26:33;;;;;;;39.42;22.92;;;2.90;99.90;;;;;;4989313;28;20158;-56
2022/01/12 05:28:58;;;;;;;37.63;22.13;;;2.80;99.90;;;;;;4989591;28;20037;-55
2022/01/12 05:31:24;;;;;;;38.05;22.48;;;2.90;99.90;;;;;;4989419;28;20026;-50
2022/01/12 05:33:50;;;;;;;43.83;22.63;;;2.90;99.90;;;;;;4990493;28;20471;-53
2022/01/12 05:36:18;;;;;;;42.40;23.00;;;2.90;99.90;;;;;;4970558;28;20026;-55
2022/01/12 05:38:45;;;;;;;47.72;25.00;;;2.80;99.90;;;;;;4989713;28;20081;-56
2022/01/12 05:41:10;;;;;;;42.60;23.80;;;2.80;99.90;;;;;;4989354;28;20106;-53
2022/01/12 05:43:37;;;;;;;42.80;21.67;;;2.90;99.90;;;;;;4988738;28;20173;-54
2022/01/12 05:46:13;;;;;;;38.30;21.95;;;2.80;99.90;;;;;;4989251;28;20109;-54
2022/01/12 05:51:27;;;;;;;42.40;22.70;;;2.80;99.90;;;;;;4989328;28;20460;-54
2022/01/12 05:53:53;;;;;;;50.20;23.52;;;2.90;99.90;;;;;;4989189;28;20027;-54
2022/01/12 05:56:19;;;;;;;42.53;22.63;;;2.90;99.90;;;;;;4989309;28;20294;-52
2022/01/12 05:58:45;;;;;;;41.83;22.58;;;2.90;99.90;;;;;;4988389;28;20085;-52
2022/01/12 06:01:11;;;;;;;43.60;22.73;;;2.90;99.90;;;;;;4989676;28;20043;-56
2022/01/12 06:03:36;;;;;;;44.40;23.98;;;2.90;99.90;;;;;;4990027;28;20027;-54
2022/01/12 06:06:02;;;;;;;44.83;21.13;;;2.90;99.90;;;;;;4988516;28;20034;-57
2022/01/12 06:08:28;;;;;;;44.88;22.40;;;2.90;99.90;;;;;;4989380;28;20389;-54
2022/01/12 06:10:53;;;;;;;42.72;22.20;;;2.90;99.90;;;;;;4989045;28;20038;-56
2022/01/12 06:13:19;;;;;;;39.15;20.85;;;2.90;99.90;;;;;;4989018;28;20084;-55
2022/01/12 06:15:44;;;;;;;44.25;22.15;;;2.80;99.90;;;;;;4988621;28;20102;-54
2022/01/12 06:18:10;;;;;;;46.33;22.30;;;2.90;99.90;;;;;;4988908;28;20507;-56
2022/01/12 06:20:36;;;;;;;44.00;22.25;;;2.90;99.90;;;;;;4993075;28;20030;-55
2022/01/12 06:23:01;;;;;;;44.85;22.30;;;2.90;99.90;;;;;;4993927;28;20219;-54
2022/01/12 06:25:27;;;;;;;39.83;21.08;;;2.90;99.90;;;;;;4992997;28;20113;-53
2022/01/12 06:27:57;;;;;;;41.85;22.02;;;3.00;99.90;;;;;;4992130;28;20090;-53
2022/01/12 06:32:58;;;;;;;48.45;23.20;;;3.00;99.90;;;;;;4993876;28;20477;-55
2022/01/12 06:35:25;;;;;;;52.88;23.23;;;3.00;99.90;;;;;;4992160;28;20104;-56
2022/01/12 06:37:51;;;;;;;44.42;22.10;;;3.00;99.90;;;;;;4992300;28;20071;-54
2022/01/12 06:40:19;;;;;;;49.17;21.75;;;3.10;99.90;;;;;;4992061;28;20445;-58
2022/01/12 06:42:45;;;;;;;45.30;21.50;;;3.10;99.90;;;;;;4992536;28;20038;-54
2022/01/12 06:45:11;;;;;;;43.03;21.38;;;3.10;99.90;;;;;;4992864;28;20038;-55
2022/01/12 06:47:37;;;;;;;51.38;21.95;;;3.10;99.90;;;;;;4991858;28;20112;-54
2022/01/12 06:50:04;;;;;;;44.78;21.70;;;3.10;99.90;;;;;;4993201;28;20485;-51
2022/01/12 06:52:30;;;;;;;56.50;23.73;;;3.10;99.90;;;;;;4991750;28;20128;-54
2022/01/12 06:54:55;;;;;;;53.90;23.80;;;3.10;99.90;;;;;;4993196;28;20556;-52
2022/01/12 06:57:21;;;;;;;49.30;22.58;;;3.10;99.90;;;;;;4991128;28;20041;-56
2022/01/12 06:59:47;;;;;;;47.33;20.35;;;3.10;99.90;;;;;;4991130;28;20409;-51
2022/01/12 07:02:12;;;;;;;55.40;22.95;;;3.10;99.90;;;;;;4993117;28;20032;-53
2022/01/12 07:04:38;;;;;;;46.25;21.33;;;3.10;99.90;;;;;;4992628;28;20037;-54
2022/01/12 07:07:04;;;;;;;47.55;22.27;;;3.10;99.90;;;;;;4992466;28;20411;-52
2022/01/12 07:09:30;;;;;;;51.67;23.15;;;3.20;99.90;;;;;;4991589;28;20034;-56
2022/01/12 07:11:55;;;;;;;45.58;22.10;;;3.20;99.90;;;;;;4974786;28;20034;-54
2022/01/12 07:14:21;;;;;;;45.80;20.30;;;3.20;99.90;;;;;;4991961;28;20081;-53
2022/01/12 07:16:46;;;;;;;49.88;22.98;;;3.20;99.90;;;;;;4992554;28;20041;-55
2022/01/12 07:19:12;;;;;;;56.20;23.83;;;3.20;99.90;;;;;;4991340;28;20070;-58
2022/01/12 07:21:38;;;;;;;58.13;22.45;;;3.20;99.90;;;;;;4991563;28;20030;-55
2022/01/12 07:24:05;;;;;;;55.75;23.20;;;3.20;99.90;;;;;;4992577;28;20113;-53
2022/01/12 07:26:30;;;;;;;49.65;22.90;;;3.20;99.90;;;;;;4991463;28;20042;-53
2022/01/12 07:28:56;;;;;;;50.42;21.38;;;3.20;99.90;;;;;;4990806;28;20452;-54
2022/01/12 07:31:23;;;;;;;55.65;21.50;;;3.30;99.90;;;;;;4989596;28;20070;-52
2022/01/12 07:33:50;;;;;;;49.72;19.52;;;3.30;99.90;;;;;;4992110;28;20187;-56
2022/01/12 07:36:16;;;;;;;47.60;20.38;;;3.30;99.90;;;;;;4991725;28;20041;-55
2022/01/12 07:38:42;;;;;;;49.92;20.90;;;3.30;99.90;;;;;;4990721;28;20042;-53
2022/01/12 07:41:07;;;;;;;48.83;22.17;;;3.20;99.90;;;;;;4990819;28;20397;-54
2022/01/12 07:43:33;;;;;;;54.83;21.35;;;3.30;99.90;;;;;;4991832;28;20097;-53
2022/01/12 07:45:58;;;;;;;56.25;21.33;;;3.30;99.90;;;;;;4991372;28;20214;-55
2022/01/12 07:48:24;;;;;;;57.00;22.05;;;3.30;99.90;;;;;;4990759;28;20033;-53
2022/01/12 07:50:49;;;;;;;50.03;21.98;;;3.30;99.90;;;;;;4991032;28;20034;-56
2022/01/12 07:53:15;;;;;;;46.38;19.58;;;3.30;99.90;;;;;;4992017;28;20089;-55
2022/01/12 07:55:41;;;;;;;46.53;20.58;;;3.30;99.90;;;;;;4990176;28;20049;-54
2022/01/12 07:58:06;;;;;;;42.80;19.98;;;3.30;99.90;;;;;;4990814;28;20034;-53
2022/01/12 08:00:32;;;;;;;46.95;20.60;;;3.30;99.90;;;;;;4990865;28;20022;-53
2022/01/12 08:02:58;;;;;;;49.00;19.88;;;3.30;99.90;;;;;;4990596;28;20096;-55
2022/01/12 08:05:23;;;;;;;44.15;18.75;;;3.30;99.90;;;;;;4990476;28;20042;-54
2022/01/12 08:07:49;;;;;;;43.75;18.83;;;3.30;99.90;;;;;;4989608;28;20034;-54
2022/01/12 08:10:16;;;;;;;44.78;19.42;;;3.30;99.90;;;;;;4991188;28;20113;-55
2022/01/12 08:12:42;;;;;;;50.35;20.05;;;3.40;99.90;;;;;;4992088;28;20481;-57
2022/01/12 08:15:09;;;;;;;48.25;21.35;;;3.30;99.90;;;;;;4991056;28;20034;-56
2022/01/12 08:17:35;;;;;;;50.88;20.23;;;3.40;99.90;;;;;;4989791;28;20060;-56
2022/01/12 08:20:03;;;;;;;48.10;21.63;;;3.40;99.90;;;;;;4991560;28;20384;-53
2022/01/12 08:22:28;;;;;;;43.17;19.55;;;3.40;99.90;;;;;;4991207;28;20022;-53
2022/01/12 08:24:55;;;;;;;44.13;19.63;;;3.40;99.90;;;;;;4991534;28;20516;-53
2022/01/12 08:27:21;;;;;;;46.85;20.40;;;3.40;99.90;;;;;;4991204;28;20536;-55
2022/01/12 08:29:49;;;;;;;49.05;20.33;;;3.40;99.90;;;;;;4990452;28;20122;-56
2022/01/12 08:32:15;;;;;;;49.75;19.35;;;3.40;99.90;;;;;;4990174;28;20042;-53
2022/01/12 08:34:40;;;;;;;43.45;19.10;;;3.50;99.90;;;;;;4991353;28;20121;-55
2022/01/12 08:37:06;;;;;;;45.80;20.10;;;3.50;99.90;;;;;;4991314;28;20109;-58
2022/01/12 08:39:32;;;;;;;44.50;19.02;;;3.50;99.90;;;;;;4990588;28;20022;-52
2022/01/12 08:41:57;;;;;;;46.42;21.67;;;3.50;99.90;;;;;;4990487;28;20034;-54
2022/01/12 08:44:23;;;;;;;50.30;20.35;;;3.60;99.90;;;;;;4990715;28;20037;-54
2022/01/12 08:46:49;;;;;;;43.60;18.85;;;3.50;99.90;;;;;;4990517;28;20036;-55
2022/01/12 08:49:14;;;;;;;40.00;18.23;;;3.50;99.90;;;;;;4990544;28;20452;-52
2022/01/12 08:51:40;;;;;;;42.17;19.42;;;3.60;99.90;;;;;;4991360;28;20053;-52
2022/01/12 08:54:06;;;;;;;41.95;18.73;;;3.60;99.90;;;;;;4990897;28;20381;-53
2022/01/12 08:56:32;;;;;;;44.42;19.17;;;3.60;99.90;;;;;;4991336;28;20030;-52
2022/01/12 08:58:58;;;;;;;49.10;20.35;;;3.60;99.90;;;;;;4990399;28;20046;-51
2022/01/12 09:01:23;;;;;;;40.05;18.17;;;3.70;99.90;;;;;;4991104;28;20118;-56
2022/01/12 09:03:49;;;;;;;35.25;17.13;;;3.70;99.90;;;;;;4991265;28;20066;-56
2022/01/12 09:06:16;;;;;;;42.88;19.38;;;3.70;99.90;;;;;;4989730;28;20038;-57
2022/01/12 09:08:44;;;;;;;43.08;17.98;;;3.70;99.90;;;;;;4989745;28;20083;-56
2022/01/12 09:11:11;;;;;;;35.63;18.33;;;3.80;99.90;;;;;;4990604;28;20030;-52
2022/01/12 09:13:37;;;;;;;36.50;18.13;;;3.80;99.90;;;;;;4989829;28;20038;-52
2022/01/12 09:16:06;;;;;;;35.30;17.50;;;3.80;99.90;;;;;;4990264;28;20122;-51
2022/01/12 09:18:37;;;;;;;38.85;18.40;;;3.90;99.90;;;;;;4990146;28;20042;-53
2022/01/12 09:21:03;;;;;;;38.63;17.42;;;3.90;99.90;;;;;;4990396;28;20030;-52
2022/01/12 09:23:29;;;;;;;42.50;19.25;;;3.90;99.90;;;;;;4990406;28;20084;-53
2022/01/12 09:25:55;;;;;;;38.92;17.95;;;4.00;99.90;;;;;;4988861;28;20034;-52
2022/01/12 09:28:21;;;;;;;37.58;17.75;;;3.90;99.90;;;;;;4988642;28;20026;-52
2022/01/12 09:30:46;;;;;;;41.10;18.98;;;4.00;99.90;;;;;;4989059;28;20031;-52
2022/01/12 09:33:12;;;;;;;38.97;17.83;;;3.90;99.90;;;;;;4987006;28;20073;-54
2022/01/12 09:35:37;;;;;;;38.88;18.50;;;3.90;99.90;;;;;;4988843;28;20026;-53
2022/01/12 09:38:03;;;;;;;38.25;17.83;;;3.90;99.90;;;;;;4989477;28;20026;-50
2022/01/12 09:40:29;;;;;;;38.95;18.83;;;4.00;99.90;;;;;;4989159;28;20396;-52
2022/01/12 09:42:56;;;;;;;36.45;18.75;;;4.00;99.90;;;;;;4990039;28;20576;-53
2022/01/12 09:45:23;;;;;;;35.45;18.15;;;4.00;99.90;;;;;;4989132;28;20284;-52
2022/01/12 09:47:49;;;;;;;38.65;18.15;;;4.10;99.90;;;;;;4989790;28;20037;-57
2022/01/12 09:50:17;;;;;;;35.30;18.13;;;4.10;99.90;;;;;;4989368;28;20045;-53
2022/01/12 09:52:43;;;;;;;38.50;16.63;;;4.10;99.90;;;;;;4990247;28;20031;-55
2022/01/12 09:55:09;;;;;;;32.50;16.95;;;4.10;99.90;;;;;;4989064;28;20026;-56
2022/01/12 09:57:34;;;;;;;35.28;15.85;;;4.10;99.90;;;;;;4989286;28;20485;-52
2022/01/12 10:00:00;;;;;;;38.83;16.08;;;4.20;99.90;;;;;;4988581;28;20073;-54
2022/01/12 10:02:26;;;;;;;35.10;16.45;;;4.20;99.90;;;;;;4990096;28;20496;-56
2022/01/12 10:05:05;;;;;;;35.72;17.30;;;4.10;99.90;;;;;;4989415;28;20030;-55
2022/01/12 10:07:31;;;;;;;37.17;16.92;;;4.20;99.90;;;;;;4989567;28;20113;-55
2022/01/12 10:10:14;;;;;;;36.25;18.48;;;4.20;99.90;;;;;;4988376;28;20114;-55
2022/01/12 10:12:50;;;;;;;33.00;16.92;;;4.20;99.90;;;;;;4970448;28;20019;-55
2022/01/12 10:15:16;;;;;;;37.17;15.48;;;4.20;99.90;;;;;;4977952;28;20125;-55
2022/01/12 10:17:47;;;;;;;28.63;15.05;;;4.30;99.90;;;;;;4989123;28;20109;-57
2022/01/12 10:20:17;;;;;;;32.60;15.75;;;4.30;99.90;;;;;;4989529;28;20022;-53
2022/01/12 10:22:55;;;;;;;29.33;14.88;;;4.20;99.90;;;;;;5013242;22;20013;-51
2022/01/12 10:25:21;;;;;;;29.85;15.63;;;4.30;99.90;;;;;;4989056;28;20022;-52
2022/01/12 10:27:48;;;;;;;34.85;16.05;;;4.30;99.90;;;;;;4988693;28;20371;-52
2022/01/12 10:30:26;;;;;;;28.95;15.15;;;4.30;99.90;;;;;;4987976;28;20125;-55
2022/01/12 10:33:08;;;;;;;31.08;13.52;;;4.30;99.90;;;;;;4989357;28;20037;-52
2022/01/12 10:35:37;;;;;;;27.27;13.95;;;4.40;99.90;;;;;;4989479;28;20032;-50
2022/01/12 10:38:14;;;;;;;29.13;14.23;;;4.40;99.90;;;;;;4989114;28;20437;-53
2022/01/12 10:40:43;;;;;;;29.92;14.07;;;4.40;99.90;;;;;;4989059;28;20517;-54
2022/01/12 10:43:24;;;;;;;26.70;11.80;;;4.40;99.90;;;;;;4989301;28;20076;-50
2022/01/12 10:45:49;;;;;;;25.58;11.45;;;4.40;99.90;;;;;;4989013;28;20050;-51
2022/01/12 10:48:15;;;;;;;36.55;14.30;;;4.50;99.90;;;;;;4988899;28;20451;-51
2022/01/12 10:50:40;;;;;;;28.88;13.13;;;4.50;99.90;;;;;;4989260;28;20106;-51
2022/01/12 10:53:06;;;;;;;29.33;12.77;;;4.50;99.90;;;;;;4988253;28;20508;-53
2022/01/12 10:55:31;;;;;;;39.15;17.23;;;4.60;99.90;;;;;;4992456;28;20032;-55
2022/01/12 10:57:59;;;;;;;28.90;12.90;;;4.70;99.90;;;;;;4993983;28;20031;-51
2022/01/12 11:00:26;;;;;;;68.63;37.42;;;4.70;99.90;;;;;;4995452;28;20105;-51
2022/01/12 11:02:59;;;;;;;35.47;15.57;;;4.70;99.90;;;;;;4990856;28;20030;-52
2022/01/12 11:05:30;;;;;;;35.40;16.90;;;4.80;99.90;;;;;;4996525;28;20037;-53
2022/01/12 11:07:56;;;;;;;41.90;21.30;;;4.80;99.90;;;;;;4987999;28;20054;-49
2022/01/12 11:10:23;;;;;;;27.88;15.25;;;4.90;99.90;;;;;;4992006;28;20152;-54
2022/01/12 11:12:50;;;;;;;21.98;12.27;;;4.90;99.90;;;;;;4991358;28;20523;-52
2022/01/12 11:15:21;;;;;;;24.65;12.07;;;5.00;99.90;;;;;;4991961;28;20033;-52
2022/01/12 11:17:49;;;;;;;26.05;13.52;;;5.10;99.90;;;;;;4990100;28;20189;-53
2022/01/12 11:20:19;;;;;;;30.25;11.35;;;5.10;99.90;;;;;;4991933;28;20022;-52
2022/01/12 11:23:03;;;;;;;28.63;17.27;;;5.20;99.90;;;;;;4991078;28;20503;-53
2022/01/12 11:25:34;;;;;;;29.65;12.27;;;5.20;99.90;;;;;;4991912;28;20036;-52
2022/01/12 11:28:13;;;;;;;23.67;11.20;;;5.30;99.90;;;;;;4988833;28;20027;-53
2022/01/12 11:30:44;;;;;;;22.90;12.55;;;5.30;99.90;;;;;;4989655;28;20080;-55
2022/01/12 11:33:12;;;;;;;24.20;11.07;;;5.40;99.90;;;;;;4990584;28;20026;-52
2022/01/12 11:35:46;;;;;;;25.58;12.23;;;5.40;99.90;;;;;;4991842;28;20030;-55
2022/01/12 11:38:29;;;;;;;31.20;12.68;;;5.40;99.90;;;;;;4990273;28;20054;-50
2022/01/12 11:41:08;;;;;;;28.48;8.48;;;5.40;99.90;;;;;;4986325;28;20061;-54
2022/01/12 11:43:45;;;;;;;18.83;7.05;;;5.50;99.90;;;;;;4992074;28;20038;-53
2022/01/12 11:46:17;;;;;;;21.48;7.28;;;5.50;99.90;;;;;;4991962;28;20385;-53
2022/01/12 11:48:47;;;;;;;21.60;8.05;;;5.60;99.90;;;;;;4991210;28;20038;-50
2022/01/12 11:51:15;;;;;;;19.63;6.38;;;5.60;99.90;;;;;;4991971;28;20532;-53
2022/01/12 11:53:55;;;;;;;17.35;6.18;;;5.70;99.90;;;;;;4990700;28;20049;-54
2022/01/12 11:56:24;;;;;;;12.18;5.78;;;5.60;99.90;;;;;;4991680;28;20077;-52
2022/01/12 11:58:57;;;;;;;18.35;6.13;;;5.70;99.90;;;;;;4990115;28;20030;-54
2022/01/12 12:01:24;;;;;;;18.73;5.93;;;5.70;99.90;;;;;;4991678;28;20424;-53
2022/01/12 12:03:59;;;;;;;16.80;5.78;;;5.70;99.90;;;;;;4991583;28;20412;-54
2022/01/12 12:06:25;;;;;;;19.08;6.47;;;5.80;99.90;;;;;;4991717;28;20097;-51
2022/01/12 12:09:15;;;;;;;16.33;6.13;;;5.70;99.90;;;;;;4991562;28;20038;-51
2022/01/12 12:11:51;;;;;;;15.00;6.63;;;5.80;99.90;;;;;;4991614;28;20041;-55
2022/01/12 12:14:18;;;;;;;15.98;6.53;;;5.80;99.90;;;;;;4991864;28;20022;-55
2022/01/12 12:16:45;;;;;;;20.27;7.05;;;5.90;99.90;;;;;;4990176;28;20038;-53
2022/01/12 12:19:11;;;;;;;20.98;8.07;;;5.90;99.90;;;;;;4991228;28;20106;-52
2022/01/12 12:21:41;;;;;;;16.67;7.13;;;5.90;99.90;;;;;;4991398;28;20118;-53
2022/01/12 12:24:12;;;;;;;17.25;7.35;;;6.00;99.90;;;;;;4990922;28;20481;-52
2022/01/12 12:26:46;;;;;;;17.65;8.43;;;6.00;99.90;;;;;;4991839;28;20547;-53
2022/01/12 12:29:14;;;;;;;26.15;8.48;;;6.00;99.90;;;;;;4991106;28;20081;-54
2022/01/12 12:31:40;;;;;;;19.02;8.07;;;6.00;99.90;;;;;;4990162;28;20080;-54
2022/01/12 12:34:06;;;;;;;23.42;8.35;;;6.00;99.90;;;;;;4991460;28;20031;-53
2022/01/12 12:36:32;;;;;;;15.30;7.18;;;6.00;99.90;;;;;;4990511;28;20117;-52
2022/01/12 12:39:13;;;;;;;19.73;8.93;;;6.00;99.90;;;;;;4990673;28;20400;-51
2022/01/12 12:41:44;;;;;;;23.38;8.20;;;5.90;99.90;;;;;;4991140;28;20045;-55
2022/01/12 12:44:25;;;;;;;22.92;8.98;;;6.00;99.90;;;;;;4991118;28;20049;-50
2022/01/12 12:47:03;;;;;;;20.15;8.55;;;6.00;99.90;;;;;;4990501;28;20117;-55
2022/01/12 12:49:29;;;;;;;21.52;8.20;;;6.00;99.90;;;;;;4990127;28;20038;-53
2022/01/12 12:52:04;;;;;;;25.02;7.97;;;6.00;99.90;;;;;;4991155;28;20035;-53
2022/01/12 12:54:30;;;;;;;15.32;6.95;;;6.00;99.90;;;;;;4990444;28;20030;-52
2022/01/12 12:57:10;;;;;;;23.30;7.18;;;6.00;99.90;;;;;;4990819;28;20042;-52
2022/01/12 12:59:36;;;;;;;20.65;7.65;;;6.10;99.90;;;;;;4973815;28;20426;-54
2022/01/12 13:02:13;;;;;;;16.15;6.88;;;6.10;99.90;;;;;;4990083;28;20097;-51
2022/01/12 13:04:39;;;;;;;16.33;6.95;;;6.10;99.90;;;;;;4990735;28;20488;-53
2022/01/12 13:07:17;;;;;;;19.13;7.50;;;6.10;99.90;;;;;;4989638;28;20032;-51
2022/01/12 13:09:44;;;;;;;19.27;6.28;;;6.10;99.90;;;;;;4990173;28;20045;-50
2022/01/12 13:12:10;;;;;;;13.63;6.15;;;6.10;99.90;;;;;;4989453;28;20061;-52
2022/01/12 13:14:44;;;;;;;16.80;6.30;;;6.10;99.90;;;;;;4990259;28;20033;-50
2022/01/12 13:17:10;;;;;;;18.60;7.25;;;6.10;99.90;;;;;;4971027;28;20033;-53
2022/01/12 13:22:36;;;;;;;16.27;8.30;;;6.10;99.90;;;;;;4971346;28;20070;-51
2022/01/12 13:25:07;;;;;;;14.75;7.45;;;6.10;99.90;;;;;;4971162;28;20035;-53
2022/01/12 13:27:34;;;;;;;20.83;7.93;;;6.00;99.90;;;;;;4971193;28;20031;-52
2022/01/12 13:29:59;;;;;;;14.82;6.82;;;6.00;99.90;;;;;;4970900;28;20019;-51
2022/01/12 13:32:25;;;;;;;17.15;7.05;;;6.00;99.90;;;;;;4970683;28;20378;-52
2022/01/12 13:34:59;;;;;;;19.63;7.35;;;6.10;99.90;;;;;;4971369;28;20018;-54
2022/01/12 13:37:25;;;;;;;23.38;7.93;;;6.10;99.90;;;;;;4971217;28;20034;-53
2022/01/12 13:40:09;;;;;;;20.85;8.20;;;6.10;99.90;;;;;;4970547;28;20022;-53
2022/01/12 13:42:56;;;;;;;17.73;7.55;;;6.00;99.90;;;;;;4971028;28;20027;-53
2022/01/12 13:45:40;;;;;;;21.23;8.40;;;6.00;99.90;;;;;;4970821;28;20029;-52
2022/01/12 13:48:16;;;;;;;16.02;8.18;;;6.00;99.90;;;;;;4970775;28;20057;-55
2022/01/12 13:50:52;;;;;;;15.07;8.32;;;6.00;99.90;;;;;;4970852;28;20038;-52
2022/01/12 13:53:19;;;;;;;21.02;8.32;;;5.90;99.90;;;;;;4970551;28;20030;-52
2022/01/12 13:55:53;;;;;;;20.85;8.50;;;6.00;99.90;;;;;;4953465;28;20042;-51
2022/01/12 13:58:20;;;;;;;18.95;6.68;;;6.00;99.90;;;;;;4969858;28;20065;-53
2022/01/12 14:00:46;;;;;;;17.52;7.90;;;5.90;99.90;;;;;;4988309;28;20088;-53
2022/01/12 14:03:21;;;;;;;20.48;8.55;;;5.90;99.90;;;;;;4989992;28;20026;-52
2022/01/12 14:05:47;;;;;;;13.73;6.68;;;5.90;99.90;;;;;;4990371;28;20023;-53